sensor_id;sensor_type;location;lat;lon;timestamp;pressure;altitude;pressure_sealevel;temperature
48894;BMP280;34710;35.798;139.446;2023-04-23T00:00:19;101187.05;;;18.36
48894;BMP280;34710;35.798;139.446;2023-04-23T00:02:45;101199.11;;;18.00
48894;BMP280;34710;35.798;139.446;2023-04-23T00:05:10;101201.75;;;18.18
48894;BMP280;34710;35.798;139.446;2023-04-23T00:07:35;101194.23;;;18.70
48894;BMP280;34710;35.798;139.446;2023-04-23T00:10:00;101196.55;;;18.29
48894;BMP280;34710;35.798;139.446;2023-04-23T00:12:25;101196.97;;;18.52
48894;BMP280;34710;35.798;139.446;2023-04-23T00:14:51;101187.85;;;18.33
48894;BMP280;34710;35.798;139.446;2023-04-23T00:17:15;101181.91;;;18.93
48894;BMP280;34710;35.798;139.446;2023-04-23T00:19:40;101185.90;;;18.75
48894;BMP280;34710;35.798;139.446;2023-04-23T00:22:05;101182.73;;;19.69
48894;BMP280;34710;35.798;139.446;2023-04-23T00:24:31;101191.29;;;19.36
48894;BMP280;34710;35.798;139.446;2023-04-23T00:26:56;101188.93;;;19.47
48894;BMP280;34710;35.798;139.446;2023-04-23T00:29:22;101185.22;;;19.61
48894;BMP280;34710;35.798;139.446;2023-04-23T00:31:47;101182.40;;;19.82
48894;BMP280;34710;35.798;139.446;2023-04-23T00:34:12;101184.53;;;19.62
48894;BMP280;34710;35.798;139.446;2023-04-23T00:36:37;101185.70;;;19.67
48894;BMP280;34710;35.798;139.446;2023-04-23T00:39:02;101183.64;;;19.44
48894;BMP280;34710;35.798;139.446;2023-04-23T00:41:27;101178.45;;;19.46
48894;BMP280;34710;35.798;139.446;2023-04-23T00:43:53;101184.97;;;19.80
48894;BMP280;34710;35.798;139.446;2023-04-23T00:46:18;101184.65;;;20.07
48894;BMP280;34710;35.798;139.446;2023-04-23T00:48:44;101177.30;;;20.56
48894;BMP280;34710;35.798;139.446;2023-04-23T00:51:09;101179.79;;;19.50
48894;BMP280;34710;35.798;139.446;2023-04-23T00:53:34;101188.43;;;20.32
48894;BMP280;34710;35.798;139.446;2023-04-23T00:55:59;101182.26;;;20.03
48894;BMP280;34710;35.798;139.446;2023-04-23T00:58:24;101183.27;;;19.74
48894;BMP280;34710;35.798;139.446;2023-04-23T01:00:49;101186.65;;;20.16
48894;BMP280;34710;35.798;139.446;2023-04-23T01:03:14;101186.34;;;19.96
48894;BMP280;34710;35.798;139.446;2023-04-23T01:05:39;101183.14;;;20.55
48894;BMP280;34710;35.798;139.446;2023-04-23T01:08:05;101181.46;;;20.72
48894;BMP280;34710;35.798;139.446;2023-04-23T01:10:31;101182.22;;;21.67
48894;BMP280;34710;35.798;139.446;2023-04-23T01:12:55;101184.80;;;22.05
48894;BMP280;34710;35.798;139.446;2023-04-23T01:15:20;101184.62;;;21.99
48894;BMP280;34710;35.798;139.446;2023-04-23T01:17:45;101187.92;;;21.29
48894;BMP280;34710;35.798;139.446;2023-04-23T01:20:11;101183.38;;;21.09
48894;BMP280;34710;35.798;139.446;2023-04-23T01:22:37;101181.09;;;21.24
48894;BMP280;34710;35.798;139.446;2023-04-23T01:25:03;101177.18;;;20.99
48894;BMP280;34710;35.798;139.446;2023-04-23T01:27:27;101177.42;;;21.71
48894;BMP280;34710;35.798;139.446;2023-04-23T01:29:52;101174.12;;;21.92
48894;BMP280;34710;35.798;139.446;2023-04-23T01:32:17;101167.64;;;22.43
48894;BMP280;34710;35.798;139.446;2023-04-23T01:34:43;101164.94;;;23.66
48894;BMP280;34710;35.798;139.446;2023-04-23T01:37:08;101157.00;;;23.54
48894;BMP280;34710;35.798;139.446;2023-04-23T01:39:32;101154.04;;;24.03
48894;BMP280;34710;35.798;139.446;2023-04-23T01:41:58;101154.24;;;24.92
48894;BMP280;34710;35.798;139.446;2023-04-23T01:44:25;101149.54;;;24.02
48894;BMP280;34710;35.798;139.446;2023-04-23T01:46:48;101148.69;;;23.95
48894;BMP280;34710;35.798;139.446;2023-04-23T01:49:14;101155.81;;;23.80
48894;BMP280;34710;35.798;139.446;2023-04-23T01:51:38;101151.43;;;23.37
48894;BMP280;34710;35.798;139.446;2023-04-23T01:54:04;101144.78;;;23.12
48894;BMP280;34710;35.798;139.446;2023-04-23T01:56:29;101138.96;;;22.62
48894;BMP280;34710;35.798;139.446;2023-04-23T01:58:55;101128.64;;;23.32
48894;BMP280;34710;35.798;139.446;2023-04-23T02:01:19;101118.71;;;23.23
48894;BMP280;34710;35.798;139.446;2023-04-23T02:03:45;101109.78;;;23.16
48894;BMP280;34710;35.798;139.446;2023-04-23T02:06:09;101104.92;;;23.12
48894;BMP280;34710;35.798;139.446;2023-04-23T02:08:34;101101.18;;;24.16
48894;BMP280;34710;35.798;139.446;2023-04-23T02:10:59;101085.46;;;23.41
48894;BMP280;34710;35.798;139.446;2023-04-23T02:13:25;101087.17;;;24.34
48894;BMP280;34710;35.798;139.446;2023-04-23T02:15:51;101080.34;;;23.51
48894;BMP280;34710;35.798;139.446;2023-04-23T02:18:15;101077.19;;;25.16
48894;BMP280;34710;35.798;139.446;2023-04-23T02:20:41;101075.77;;;25.15
48894;BMP280;34710;35.798;139.446;2023-04-23T02:23:05;101067.06;;;24.61
48894;BMP280;34710;35.798;139.446;2023-04-23T02:25:31;101063.95;;;24.82
48894;BMP280;34710;35.798;139.446;2023-04-23T02:27:56;101060.94;;;24.15
48894;BMP280;34710;35.798;139.446;2023-04-23T02:30:21;101052.88;;;23.61
48894;BMP280;34710;35.798;139.446;2023-04-23T02:32:45;101055.47;;;23.63
48894;BMP280;34710;35.798;139.446;2023-04-23T02:35:12;101048.58;;;24.19
48894;BMP280;34710;35.798;139.446;2023-04-23T02:37:37;101048.20;;;24.20
48894;BMP280;34710;35.798;139.446;2023-04-23T02:40:02;101043.38;;;23.68
48894;BMP280;34710;35.798;139.446;2023-04-23T02:42:27;101047.52;;;24.17
48894;BMP280;34710;35.798;139.446;2023-04-23T02:44:52;101034.24;;;23.59
48894;BMP280;34710;35.798;139.446;2023-04-23T02:47:17;101030.66;;;23.07
48894;BMP280;34710;35.798;139.446;2023-04-23T02:49:42;101034.55;;;23.70
48894;BMP280;34710;35.798;139.446;2023-04-23T02:52:08;101020.95;;;23.69
48894;BMP280;34710;35.798;139.446;2023-04-23T02:54:33;101022.59;;;24.38
48894;BMP280;34710;35.798;139.446;2023-04-23T02:56:58;101030.76;;;23.90
48894;BMP280;34710;35.798;139.446;2023-04-23T02:59:23;101016.51;;;23.77
48894;BMP280;34710;35.798;139.446;2023-04-23T03:01:49;101009.74;;;24.12
48894;BMP280;34710;35.798;139.446;2023-04-23T03:04:14;101008.09;;;24.54
48894;BMP280;34710;35.798;139.446;2023-04-23T03:06:39;101001.55;;;23.73
48894;BMP280;34710;35.798;139.446;2023-04-23T03:09:04;101005.48;;;24.81
48894;BMP280;34710;35.798;139.446;2023-04-23T03:11:30;101006.85;;;24.58
48894;BMP280;34710;35.798;139.446;2023-04-23T03:13:54;101004.16;;;23.60
48894;BMP280;34710;35.798;139.446;2023-04-23T03:16:19;100988.60;;;23.64
48894;BMP280;34710;35.798;139.446;2023-04-23T03:18:44;100985.62;;;24.53
48894;BMP280;34710;35.798;139.446;2023-04-23T03:21:10;100980.74;;;25.08
48894;BMP280;34710;35.798;139.446;2023-04-23T03:23:36;100987.30;;;24.55
48894;BMP280;34710;35.798;139.446;2023-04-23T03:26:00;100981.05;;;24.67
48894;BMP280;34710;35.798;139.446;2023-04-23T03:28:25;100964.22;;;25.54
48894;BMP280;34710;35.798;139.446;2023-04-23T03:30:50;100962.39;;;24.48
48894;BMP280;34710;35.798;139.446;2023-04-23T03:33:16;100963.94;;;25.55
48894;BMP280;34710;35.798;139.446;2023-04-23T03:35:41;100961.31;;;25.98
48894;BMP280;34710;35.798;139.446;2023-04-23T03:38:07;100958.60;;;25.65
48894;BMP280;34710;35.798;139.446;2023-04-23T03:40:32;100957.63;;;26.07
48894;BMP280;34710;35.798;139.446;2023-04-23T03:42:57;100955.96;;;24.96
48894;BMP280;34710;35.798;139.446;2023-04-23T03:45:22;100958.32;;;25.39
48894;BMP280;34710;35.798;139.446;2023-04-23T03:47:47;100954.48;;;26.33
48894;BMP280;34710;35.798;139.446;2023-04-23T03:50:12;100948.11;;;22.89
48894;BMP280;34710;35.798;139.446;2023-04-23T03:52:37;100949.08;;;25.77
48894;BMP280;34710;35.798;139.446;2023-04-23T03:55:02;100937.95;;;26.03
48894;BMP280;34710;35.798;139.446;2023-04-23T03:57:27;100937.71;;;26.28
48894;BMP280;34710;35.798;139.446;2023-04-23T03:59:53;100930.43;;;25.64
48894;BMP280;34710;35.798;139.446;2023-04-23T04:02:18;100927.98;;;26.16
48894;BMP280;34710;35.798;139.446;2023-04-23T04:04:43;100931.76;;;27.29
48894;BMP280;34710;35.798;139.446;2023-04-23T04:07:08;100935.18;;;27.29
48894;BMP280;34710;35.798;139.446;2023-04-23T04:09:33;100925.43;;;26.72
48894;BMP280;34710;35.798;139.446;2023-04-23T04:11:58;100930.45;;;27.56
48894;BMP280;34710;35.798;139.446;2023-04-23T04:14:23;100925.13;;;26.61
48894;BMP280;34710;35.798;139.446;2023-04-23T04:16:50;100925.01;;;26.19
48894;BMP280;34710;35.798;139.446;2023-04-23T04:19:14;100925.59;;;27.42
48894;BMP280;34710;35.798;139.446;2023-04-23T04:21:39;100917.70;;;27.23
48894;BMP280;34710;35.798;139.446;2023-04-23T04:24:05;100915.88;;;27.99
48894;BMP280;34710;35.798;139.446;2023-04-23T04:26:31;100912.81;;;28.22
48894;BMP280;34710;35.798;139.446;2023-04-23T04:28:56;100909.08;;;27.31
48894;BMP280;34710;35.798;139.446;2023-04-23T04:31:22;100908.56;;;28.08
48894;BMP280;34710;35.798;139.446;2023-04-23T04:33:47;100906.65;;;27.69
48894;BMP280;34710;35.798;139.446;2023-04-23T04:36:12;100905.38;;;27.74
48894;BMP280;34710;35.798;139.446;2023-04-23T04:38:37;100898.22;;;27.44
48894;BMP280;34710;35.798;139.446;2023-04-23T04:41:02;100898.94;;;27.86
48894;BMP280;34710;35.798;139.446;2023-04-23T04:43:28;100901.60;;;26.91
48894;BMP280;34710;35.798;139.446;2023-04-23T04:45:53;100889.23;;;28.13
48894;BMP280;34710;35.798;139.446;2023-04-23T04:48:17;100891.23;;;27.57
48894;BMP280;34710;35.798;139.446;2023-04-23T04:50:43;100895.14;;;26.39
48894;BMP280;34710;35.798;139.446;2023-04-23T04:53:08;100892.81;;;27.49
48894;BMP280;34710;35.798;139.446;2023-04-23T04:55:33;100888.51;;;28.30
48894;BMP280;34710;35.798;139.446;2023-04-23T04:57:58;100877.80;;;28.09
48894;BMP280;34710;35.798;139.446;2023-04-23T05:00:25;100874.32;;;28.64
48894;BMP280;34710;35.798;139.446;2023-04-23T05:02:49;100872.54;;;28.40
48894;BMP280;34710;35.798;139.446;2023-04-23T05:05:14;100872.23;;;24.07
48894;BMP280;34710;35.798;139.446;2023-04-23T05:07:39;100864.83;;;25.26
48894;BMP280;34710;35.798;139.446;2023-04-23T05:10:04;100865.31;;;22.02
48894;BMP280;34710;35.798;139.446;2023-04-23T05:12:29;100869.10;;;25.43
48894;BMP280;34710;35.798;139.446;2023-04-23T05:14:54;100866.27;;;25.91
48894;BMP280;34710;35.798;139.446;2023-04-23T05:17:20;100868.54;;;26.09
48894;BMP280;34710;35.798;139.446;2023-04-23T05:19:45;100859.13;;;26.58
48894;BMP280;34710;35.798;139.446;2023-04-23T05:22:10;100851.27;;;27.26
48894;BMP280;34710;35.798;139.446;2023-04-23T05:24:35;100850.21;;;26.01
48894;BMP280;34710;35.798;139.446;2023-04-23T05:27:01;100848.90;;;26.66
48894;BMP280;34710;35.798;139.446;2023-04-23T05:29:26;100831.96;;;26.31
48894;BMP280;34710;35.798;139.446;2023-04-23T05:31:51;100826.14;;;27.06
48894;BMP280;34710;35.798;139.446;2023-04-23T05:34:17;100832.53;;;26.37
48894;BMP280;34710;35.798;139.446;2023-04-23T05:36:42;100837.69;;;25.97
48894;BMP280;34710;35.798;139.446;2023-04-23T05:39:09;100841.03;;;23.49
48894;BMP280;34710;35.798;139.446;2023-04-23T05:41:33;100847.97;;;22.97
48894;BMP280;34710;35.798;139.446;2023-04-23T05:43:58;100843.38;;;21.50
48894;BMP280;34710;35.798;139.446;2023-04-23T05:46:24;100835.34;;;22.45
48894;BMP280;34710;35.798;139.446;2023-04-23T05:48:49;100832.27;;;22.47
48894;BMP280;34710;35.798;139.446;2023-04-23T05:51:15;100832.92;;;23.24
48894;BMP280;34710;35.798;139.446;2023-04-23T05:53:39;100828.56;;;23.35
48894;BMP280;34710;35.798;139.446;2023-04-23T05:56:05;100830.01;;;24.40
48894;BMP280;34710;35.798;139.446;2023-04-23T05:58:30;100823.80;;;24.12
48894;BMP280;34710;35.798;139.446;2023-04-23T06:00:55;100817.16;;;22.87
48894;BMP280;34710;35.798;139.446;2023-04-23T06:03:20;100813.50;;;24.98
48894;BMP280;34710;35.798;139.446;2023-04-23T06:05:46;100811.83;;;24.31
48894;BMP280;34710;35.798;139.446;2023-04-23T06:08:10;100811.05;;;24.11
48894;BMP280;34710;35.798;139.446;2023-04-23T06:10:36;100808.31;;;24.34
48894;BMP280;34710;35.798;139.446;2023-04-23T06:13:01;100810.99;;;24.79
48894;BMP280;34710;35.798;139.446;2023-04-23T06:15:26;100805.88;;;25.25
48894;BMP280;34710;35.798;139.446;2023-04-23T06:17:52;100807.21;;;25.05
48894;BMP280;34710;35.798;139.446;2023-04-23T06:20:17;100803.08;;;26.07
48894;BMP280;34710;35.798;139.446;2023-04-23T06:22:42;100807.83;;;25.62
48894;BMP280;34710;35.798;139.446;2023-04-23T06:25:08;100811.75;;;24.15
48894;BMP280;34710;35.798;139.446;2023-04-23T06:27:32;100809.36;;;24.43
48894;BMP280;34710;35.798;139.446;2023-04-23T06:29:58;100806.98;;;24.06
48894;BMP280;34710;35.798;139.446;2023-04-23T06:32:23;100803.75;;;23.45
48894;BMP280;34710;35.798;139.446;2023-04-23T06:34:47;100803.72;;;24.74
48894;BMP280;34710;35.798;139.446;2023-04-23T06:37:13;100797.69;;;22.78
48894;BMP280;34710;35.798;139.446;2023-04-23T06:39:38;100799.87;;;22.23
48894;BMP280;34710;35.798;139.446;2023-04-23T06:42:03;100795.96;;;23.03
48894;BMP280;34710;35.798;139.446;2023-04-23T06:44:28;100800.51;;;24.14
48894;BMP280;34710;35.798;139.446;2023-04-23T06:46:54;100805.57;;;24.67
48894;BMP280;34710;35.798;139.446;2023-04-23T06:49:18;100803.17;;;22.92
48894;BMP280;34710;35.798;139.446;2023-04-23T06:51:45;100802.73;;;23.93
48894;BMP280;34710;35.798;139.446;2023-04-23T06:54:09;100803.98;;;22.82
48894;BMP280;34710;35.798;139.446;2023-04-23T06:56:34;100803.91;;;23.26
48894;BMP280;34710;35.798;139.446;2023-04-23T06:59:00;100800.72;;;23.89
48894;BMP280;34710;35.798;139.446;2023-04-23T07:01:25;100791.46;;;24.79
48894;BMP280;34710;35.798;139.446;2023-04-23T07:03:50;100786.63;;;22.72
48894;BMP280;34710;35.798;139.446;2023-04-23T07:06:16;100788.63;;;22.55
48894;BMP280;34710;35.798;139.446;2023-04-23T07:08:41;100790.47;;;23.93
48894;BMP280;34710;35.798;139.446;2023-04-23T07:11:06;100789.69;;;21.94
48894;BMP280;34710;35.798;139.446;2023-04-23T07:13:31;100796.16;;;23.16
48894;BMP280;34710;35.798;139.446;2023-04-23T07:15:56;100787.47;;;23.85
48894;BMP280;34710;35.798;139.446;2023-04-23T07:18:21;100786.29;;;23.97
48894;BMP280;34710;35.798;139.446;2023-04-23T07:20:47;100785.96;;;23.06
48894;BMP280;34710;35.798;139.446;2023-04-23T07:23:12;100788.24;;;22.48
48894;BMP280;34710;35.798;139.446;2023-04-23T07:25:37;100787.19;;;21.27
48894;BMP280;34710;35.798;139.446;2023-04-23T07:28:03;100788.29;;;22.56
48894;BMP280;34710;35.798;139.446;2023-04-23T07:30:27;100790.24;;;22.90
48894;BMP280;34710;35.798;139.446;2023-04-23T07:32:53;100787.98;;;22.71
48894;BMP280;34710;35.798;139.446;2023-04-23T07:35:19;100788.25;;;22.64
48894;BMP280;34710;35.798;139.446;2023-04-23T07:37:43;100790.39;;;22.09
48894;BMP280;34710;35.798;139.446;2023-04-23T07:40:12;100794.99;;;21.82
48894;BMP280;34710;35.798;139.446;2023-04-23T07:42:35;100794.11;;;20.95
48894;BMP280;34710;35.798;139.446;2023-04-23T07:45:00;100799.68;;;19.26
48894;BMP280;34710;35.798;139.446;2023-04-23T07:47:26;100802.53;;;18.76
48894;BMP280;34710;35.798;139.446;2023-04-23T07:49:52;100800.01;;;18.29
48894;BMP280;34710;35.798;139.446;2023-04-23T07:52:17;100802.42;;;18.40
48894;BMP280;34710;35.798;139.446;2023-04-23T07:54:43;100812.34;;;18.32
48894;BMP280;34710;35.798;139.446;2023-04-23T07:57:08;100817.60;;;18.24
48894;BMP280;34710;35.798;139.446;2023-04-23T07:59:33;100818.06;;;17.33
48894;BMP280;34710;35.798;139.446;2023-04-23T08:01:59;100823.46;;;16.79
48894;BMP280;34710;35.798;139.446;2023-04-23T08:04:24;100828.87;;;16.20
48894;BMP280;34710;35.798;139.446;2023-04-23T08:06:49;100820.84;;;16.86
48894;BMP280;34710;35.798;139.446;2023-04-23T08:09:14;100820.12;;;16.39
48894;BMP280;34710;35.798;139.446;2023-04-23T08:11:42;100826.97;;;17.49
48894;BMP280;34710;35.798;139.446;2023-04-23T08:14:07;100830.30;;;16.13
48894;BMP280;34710;35.798;139.446;2023-04-23T08:16:31;100834.55;;;15.85
48894;BMP280;34710;35.798;139.446;2023-04-23T08:18:56;100829.45;;;16.55
48894;BMP280;34710;35.798;139.446;2023-04-23T08:21:23;100821.01;;;17.41
48894;BMP280;34710;35.798;139.446;2023-04-23T08:23:47;100828.08;;;17.52
48894;BMP280;34710;35.798;139.446;2023-04-23T08:26:13;100838.54;;;16.09
48894;BMP280;34710;35.798;139.446;2023-04-23T08:28:38;100841.70;;;16.20
48894;BMP280;34710;35.798;139.446;2023-04-23T08:31:03;100841.21;;;16.40
48894;BMP280;34710;35.798;139.446;2023-04-23T08:33:29;100837.55;;;16.67
48894;BMP280;34710;35.798;139.446;2023-04-23T08:35:53;100840.84;;;16.26
48894;BMP280;34710;35.798;139.446;2023-04-23T08:38:18;100847.89;;;16.59
48894;BMP280;34710;35.798;139.446;2023-04-23T08:40:45;100849.30;;;16.68
48894;BMP280;34710;35.798;139.446;2023-04-23T08:43:14;100851.97;;;16.47
48894;BMP280;34710;35.798;139.446;2023-04-23T08:45:36;100859.26;;;15.66
48894;BMP280;34710;35.798;139.446;2023-04-23T08:48:01;100860.32;;;16.54
48894;BMP280;34710;35.798;139.446;2023-04-23T08:50:26;100857.89;;;16.93
48894;BMP280;34710;35.798;139.446;2023-04-23T08:52:54;100856.23;;;16.94
48894;BMP280;34710;35.798;139.446;2023-04-23T08:55:17;100862.75;;;16.93
48894;BMP280;34710;35.798;139.446;2023-04-23T08:57:43;100863.17;;;17.26
48894;BMP280;34710;35.798;139.446;2023-04-23T09:00:10;100865.24;;;16.69
48894;BMP280;34710;35.798;139.446;2023-04-23T09:02:33;100874.96;;;16.98
48894;BMP280;34710;35.798;139.446;2023-04-23T09:04:59;100877.54;;;16.74
48894;BMP280;34710;35.798;139.446;2023-04-23T09:07:23;100883.59;;;16.41
48894;BMP280;34710;35.798;139.446;2023-04-23T09:09:48;100884.72;;;16.07
48894;BMP280;34710;35.798;139.446;2023-04-23T09:12:13;100883.35;;;15.89
48894;BMP280;34710;35.798;139.446;2023-04-23T09:14:38;100886.61;;;16.11
48894;BMP280;34710;35.798;139.446;2023-04-23T09:17:05;100888.91;;;16.26
48894;BMP280;34710;35.798;139.446;2023-04-23T09:19:30;100887.50;;;16.47
48894;BMP280;34710;35.798;139.446;2023-04-23T09:21:57;100892.70;;;15.09
48894;BMP280;34710;35.798;139.446;2023-04-23T09:24:23;100892.23;;;15.91
48894;BMP280;34710;35.798;139.446;2023-04-23T09:26:48;100895.66;;;16.02
48894;BMP280;34710;35.798;139.446;2023-04-23T09:29:15;100895.12;;;16.40
48894;BMP280;34710;35.798;139.446;2023-04-23T09:31:39;100899.90;;;14.96
48894;BMP280;34710;35.798;139.446;2023-04-23T09:34:03;100904.42;;;14.21
48894;BMP280;34710;35.798;139.446;2023-04-23T09:36:30;100910.21;;;15.13
48894;BMP280;34710;35.798;139.446;2023-04-23T09:38:57;100910.10;;;16.34
48894;BMP280;34710;35.798;139.446;2023-04-23T09:41:23;100908.87;;;16.34
48894;BMP280;34710;35.798;139.446;2023-04-23T09:43:48;100910.69;;;17.22
48894;BMP280;34710;35.798;139.446;2023-04-23T09:46:11;100920.42;;;16.19
48894;BMP280;34710;35.798;139.446;2023-04-23T09:48:40;100924.61;;;15.10
48894;BMP280;34710;35.798;139.446;2023-04-23T09:51:02;100927.35;;;16.40
48894;BMP280;34710;35.798;139.446;2023-04-23T09:53:27;100931.44;;;15.00
48894;BMP280;34710;35.798;139.446;2023-04-23T09:55:53;100933.23;;;14.55
48894;BMP280;34710;35.798;139.446;2023-04-23T09:58:18;100942.33;;;14.22
48894;BMP280;34710;35.798;139.446;2023-04-23T10:00:43;100947.18;;;12.98
48894;BMP280;34710;35.798;139.446;2023-04-23T10:03:09;100954.04;;;14.16
48894;BMP280;34710;35.798;139.446;2023-04-23T10:05:39;100959.38;;;15.16
48894;BMP280;34710;35.798;139.446;2023-04-23T10:08:00;100967.78;;;15.50
48894;BMP280;34710;35.798;139.446;2023-04-23T10:10:26;100972.43;;;15.94
48894;BMP280;34710;35.798;139.446;2023-04-23T10:12:53;100976.36;;;16.01
48894;BMP280;34710;35.798;139.446;2023-04-23T10:15:17;100978.49;;;15.49
48894;BMP280;34710;35.798;139.446;2023-04-23T10:17:42;100984.52;;;14.01
48894;BMP280;34710;35.798;139.446;2023-04-23T10:20:09;100994.26;;;15.54
48894;BMP280;34710;35.798;139.446;2023-04-23T10:22:34;100999.81;;;16.08
48894;BMP280;34710;35.798;139.446;2023-04-23T10:25:03;101005.91;;;15.85
48894;BMP280;34710;35.798;139.446;2023-04-23T10:27:27;101010.11;;;16.31
48894;BMP280;34710;35.798;139.446;2023-04-23T10:29:50;101006.64;;;15.82
48894;BMP280;34710;35.798;139.446;2023-04-23T10:32:16;101010.29;;;15.32
48894;BMP280;34710;35.798;139.446;2023-04-23T10:34:42;101018.49;;;15.74
48894;BMP280;34710;35.798;139.446;2023-04-23T10:37:06;101024.50;;;16.06
48894;BMP280;34710;35.798;139.446;2023-04-23T10:39:33;101026.17;;;16.09
48894;BMP280;34710;35.798;139.446;2023-04-23T10:41:59;101031.42;;;16.54
48894;BMP280;34710;35.798;139.446;2023-04-23T10:44:30;101040.67;;;16.54
48894;BMP280;34710;35.798;139.446;2023-04-23T10:46:53;101050.10;;;16.19
48894;BMP280;34710;35.798;139.446;2023-04-23T10:49:14;101058.56;;;17.08
48894;BMP280;34710;35.798;139.446;2023-04-23T10:51:39;101069.62;;;16.87
48894;BMP280;34710;35.798;139.446;2023-04-23T10:54:05;101075.76;;;16.71
48894;BMP280;34710;35.798;139.446;2023-04-23T10:56:30;101087.91;;;16.85
48894;BMP280;34710;35.798;139.446;2023-04-23T10:58:56;101089.67;;;16.12
48894;BMP280;34710;35.798;139.446;2023-04-23T11:01:24;101096.14;;;16.81
48894;BMP280;34710;35.798;139.446;2023-04-23T11:03:46;101102.64;;;16.20
48894;BMP280;34710;35.798;139.446;2023-04-23T11:06:17;101107.47;;;17.13
48894;BMP280;34710;35.798;139.446;2023-04-23T11:08:40;101103.02;;;16.90
48894;BMP280;34710;35.798;139.446;2023-04-23T11:11:07;101105.37;;;16.22
48894;BMP280;34710;35.798;139.446;2023-04-23T11:13:28;101107.99;;;16.57
48894;BMP280;34710;35.798;139.446;2023-04-23T11:18:17;101124.64;;;16.35
48894;BMP280;34710;35.798;139.446;2023-04-23T11:20:43;101128.29;;;15.84
48894;BMP280;34710;35.798;139.446;2023-04-23T11:23:09;101132.19;;;16.33
48894;BMP280;34710;35.798;139.446;2023-04-23T11:25:36;101134.57;;;16.15
48894;BMP280;34710;35.798;139.446;2023-04-23T11:27:59;101140.47;;;15.93
48894;BMP280;34710;35.798;139.446;2023-04-23T11:30:27;101139.52;;;15.32
48894;BMP280;34710;35.798;139.446;2023-04-23T11:32:53;101143.30;;;15.92
48894;BMP280;34710;35.798;139.446;2023-04-23T11:35:18;101148.49;;;16.14
48894;BMP280;34710;35.798;139.446;2023-04-23T11:37:43;101152.83;;;15.84
48894;BMP280;34710;35.798;139.446;2023-04-23T11:40:09;101155.59;;;15.74
48894;BMP280;34710;35.798;139.446;2023-04-23T11:42:32;101153.66;;;15.51
48894;BMP280;34710;35.798;139.446;2023-04-23T11:44:58;101157.05;;;15.53
48894;BMP280;34710;35.798;139.446;2023-04-23T11:47:26;101160.71;;;15.78
48894;BMP280;34710;35.798;139.446;2023-04-23T11:49:48;101157.36;;;15.37
48894;BMP280;34710;35.798;139.446;2023-04-23T11:52:15;101160.21;;;14.98
48894;BMP280;34710;35.798;139.446;2023-04-23T11:54:41;101166.04;;;15.10
48894;BMP280;34710;35.798;139.446;2023-04-23T11:57:05;101171.98;;;14.87
48894;BMP280;34710;35.798;139.446;2023-04-23T11:59:31;101169.73;;;14.31
48894;BMP280;34710;35.798;139.446;2023-04-23T12:01:57;101176.51;;;14.68
48894;BMP280;34710;35.798;139.446;2023-04-23T12:04:23;101177.18;;;14.60
48894;BMP280;34710;35.798;139.446;2023-04-23T12:06:48;101177.82;;;14.83
48894;BMP280;34710;35.798;139.446;2023-04-23T12:09:12;101184.13;;;15.09
48894;BMP280;34710;35.798;139.446;2023-04-23T12:11:39;101186.60;;;15.06
48894;BMP280;34710;35.798;139.446;2023-04-23T12:14:05;101199.60;;;14.52
48894;BMP280;34710;35.798;139.446;2023-04-23T12:16:35;101191.69;;;13.82
48894;BMP280;34710;35.798;139.446;2023-04-23T12:18:53;101196.81;;;14.60
48894;BMP280;34710;35.798;139.446;2023-04-23T12:21:19;101196.50;;;13.86
48894;BMP280;34710;35.798;139.446;2023-04-23T12:23:44;101193.99;;;13.76
48894;BMP280;34710;35.798;139.446;2023-04-23T12:26:11;101200.21;;;13.93
48894;BMP280;34710;35.798;139.446;2023-04-23T12:28:35;101204.66;;;14.01
48894;BMP280;34710;35.798;139.446;2023-04-23T12:31:01;101199.37;;;14.33
48894;BMP280;34710;35.798;139.446;2023-04-23T12:33:29;101196.95;;;14.01
48894;BMP280;34710;35.798;139.446;2023-04-23T12:35:51;101196.99;;;14.02
48894;BMP280;34710;35.798;139.446;2023-04-23T12:38:23;101194.26;;;14.28
48894;BMP280;34710;35.798;139.446;2023-04-23T12:40:41;101202.62;;;13.84
48894;BMP280;34710;35.798;139.446;2023-04-23T12:43:06;101196.74;;;14.02
48894;BMP280;34710;35.798;139.446;2023-04-23T12:45:36;101196.90;;;13.39
48894;BMP280;34710;35.798;139.446;2023-04-23T12:47:59;101194.15;;;13.74
48894;BMP280;34710;35.798;139.446;2023-04-23T12:50:23;101193.65;;;13.41
48894;BMP280;34710;35.798;139.446;2023-04-23T12:52:49;101183.79;;;14.04
48894;BMP280;34710;35.798;139.446;2023-04-23T12:55:13;101190.88;;;14.19
48894;BMP280;34710;35.798;139.446;2023-04-23T12:57:40;101198.15;;;13.56
48894;BMP280;34710;35.798;139.446;2023-04-23T13:00:05;101202.20;;;13.34
48894;BMP280;34710;35.798;139.446;2023-04-23T13:02:31;101203.51;;;13.28
48894;BMP280;34710;35.798;139.446;2023-04-23T13:04:56;101201.86;;;13.40
48894;BMP280;34710;35.798;139.446;2023-04-23T13:07:22;101205.16;;;13.07
48894;BMP280;34710;35.798;139.446;2023-04-23T13:09:47;101209.46;;;12.69
48894;BMP280;34710;35.798;139.446;2023-04-23T13:12:13;101213.24;;;12.97
48894;BMP280;34710;35.798;139.446;2023-04-23T13:14:38;101210.74;;;12.49
48894;BMP280;34710;35.798;139.446;2023-04-23T13:17:03;101205.97;;;12.13
48894;BMP280;34710;35.798;139.446;2023-04-23T13:19:28;101200.13;;;12.95
48894;BMP280;34710;35.798;139.446;2023-04-23T13:21:54;101197.00;;;12.61